• Join FlightAware (Why Join?)
  • Login
  • US Flag 
07:23PM EDT


 

Airport Tracker/Info


-or-


 

Live Flight TrackerFlight Track Log ✈ VH-LSI ✈ 01-Jul-2013 ✈ YSCB / CBR - YSCN / CDU

Flight Track Log - Related Links

Times and Time Zones

All times are in EDT time to prevent confusion due to time zone crossing. See the VH-LSI flight status page for this flight to view local times or setup timezone preferences in your user account.

Time Position Orientation Groundspeed Altitude Reporting Facility
EDT Latitude Longitude Course Direction KTS MPH feet Rate Location/Type
12:48AM -35.2915 149.1943 15° North 71 82 2,200  Level Aus ATC (RADAR)
12:49AM -35.2690 149.2019 15° North 80 92 2,700 360 Climbing Aus ATC (RADAR)
12:50AM -35.2603 149.2120 44° Northeast 75 86 2,900 360 Climbing Aus ATC (RADAR)
12:51AM -35.2469 149.2322 51° Northeast 70 81 3,300 360 Climbing Aus ATC (RADAR)
12:52AM -35.2401 149.2441 55° Northeast 74 85 3,500 360 Climbing Aus ATC (RADAR)
12:52AM -35.2309 149.2587 52° Northeast 74 85 3,800 360 Climbing Aus ATC (RADAR)
12:53AM -35.2226 149.2732 55° Northeast 87 100 4,000 240 Climbing Aus ATC (RADAR)
12:53AM -35.2144 149.2860 52° Northeast 83 96 4,100 240 Climbing Aus ATC (RADAR)
12:54AM -35.2064 149.2991 53° Northeast 82 94 4,300 300 Climbing Aus ATC (RADAR)
12:55AM -35.1928 149.3206 52° Northeast 82 94 4,600 240 Climbing Aus ATC (RADAR)
12:56AM -35.1787 149.3423 52° Northeast 85 98 4,800 240 Climbing Aus ATC (RADAR)
12:56AM -35.1696 149.3565 52° Northeast 89 102 5,000 300 Climbing Aus ATC (RADAR)
12:57AM -35.1556 149.3735 45° Northeast 99 114 5,200 120 Climbing Aus ATC (RADAR)
12:58AM -35.1294 149.3796 11° North 99 114 5,300 60 Climbing Aus ATC (RADAR)
12:59AM -35.1103 149.3847 12° North 95 109 5,400 180 Climbing Aus ATC (RADAR)
01:00AM -35.0953 149.3883 11° North 95 109 5,600 300 Climbing Aus ATC (RADAR)
01:04AM -35.0033 149.4003 360° North 5,500 -60 Descending Aus ATC (Calculated)
01:04AM -35.0033 149.4003 48° Northeast 5,500  Level Aus ATC (Calculated)
01:06AM -34.9821 149.4292 48° Northeast  Level FlightAware Approximate
01:07AM -34.9666 149.4502 48° Northeast  Level FlightAware Approximate
01:07AM -34.8775 149.4128 52° Northeast 5,500  Level Aus ATC (Calculated)
01:09AM -34.8593 149.4409 52° Northeast  Level FlightAware Approximate
01:10AM -34.8450 149.4632 52° Northeast  Level FlightAware Approximate
01:11AM -34.8306 149.4854 52° Northeast  Level FlightAware Approximate
01:12AM -34.8162 149.5076 52° Northeast  Level FlightAware Approximate
01:13AM -34.8019 149.5298 52° Northeast  Level FlightAware Approximate
01:14AM -34.7875 149.5520 52° Northeast  Level FlightAware Approximate
01:15AM -34.7731 149.5741 52° Northeast  Level FlightAware Approximate
01:16AM -34.7587 149.5963 52° Northeast  Level FlightAware Approximate
01:17AM -34.7444 149.6185 52° Northeast  Level FlightAware Approximate
01:18AM -34.7300 149.6407 52° Northeast  Level FlightAware Approximate
01:19AM -34.7156 149.6628 52° Northeast  Level FlightAware Approximate
01:19AM -34.5000 149.4500 66° East 5,500  Level Aus ATC (Calculated)
01:21AM -34.4864 149.4873 66° East  Level FlightAware Approximate
01:21AM -34.4716 149.5277 360° North  Level Aus ATC (Calculated)
01:21AM -34.4716 149.5277 66° East  Level Aus ATC (Calculated)
01:23AM -34.4619 149.5543 66° East  Level FlightAware Approximate
01:24AM -34.4525 149.5800 66° East  Level FlightAware Approximate
01:25AM -34.4431 149.6058 66° East  Level FlightAware Approximate
01:26AM -34.4337 149.6315 66° East  Level FlightAware Approximate
01:27AM -34.4242 149.6572 66° East  Level FlightAware Approximate
01:28AM -34.4148 149.6829 66° East  Level FlightAware Approximate
01:29AM -34.4053 149.7086 66° East  Level FlightAware Approximate
01:30AM -34.3959 149.7343 66° East  Level FlightAware Approximate
01:31AM -34.3864 149.7600 66° East  Level FlightAware Approximate
01:32AM -34.3770 149.7856 66° East  Level FlightAware Approximate
01:33AM -34.3675 149.8113 66° East  Level FlightAware Approximate
01:34AM -34.3581 149.8370 66° East  Level FlightAware Approximate
01:35AM -34.3486 149.8627 66° East  Level FlightAware Approximate
01:36AM -34.3391 149.8883 66° East  Level FlightAware Approximate
01:37AM -34.3296 149.9140 66° East  Level FlightAware Approximate
01:38AM -34.3201 149.9396 66° East  Level FlightAware Approximate
01:39AM -34.3106 149.9653 66° East  Level FlightAware Approximate
01:40AM -34.3011 149.9909 66° East  Level FlightAware Approximate
01:41AM -34.2916 150.0165 66° East  Level FlightAware Approximate
01:42AM -34.2821 150.0421 66° East  Level FlightAware Approximate
01:43AM -34.2726 150.0677 66° East  Level FlightAware Approximate
01:44AM -34.2631 150.0934 66° East  Level FlightAware Approximate
01:45AM -34.2536 150.1190 66° East  Level FlightAware Approximate
01:46AM -34.2440 150.1446 66° East  Level FlightAware Approximate
01:47AM -34.2345 150.1702 66° East  Level FlightAware Approximate
01:48AM -34.2249 150.1958 66° East  Level FlightAware Approximate
01:48AM -34.2033 150.2538 149° Southeast  Level Aus ATC (Calculated)
01:48AM -34.2033 150.2538 66° East  Level Aus ATC (Calculated)
01:50AM -34.1868 150.2977 66° East  Level FlightAware Approximate
01:50AM -34.1627 150.3623 180° South  Level Aus ATC (Calculated)
01:51AM -34.1627 150.3623 66° East  Level Aus ATC (Calculated)
01:53AM -34.1490 150.3989 66° East  Level FlightAware Approximate
01:54AM -34.1394 150.4244 66° East  Level FlightAware Approximate
01:55AM -34.1298 150.4500 66° East  Level FlightAware Approximate
01:56AM -34.1202 150.4755 66° East  Level FlightAware Approximate
01:57AM -34.1105 150.5010 66° East  Level FlightAware Approximate
01:58AM -34.1009 150.5265 66° East  Level FlightAware Approximate
01:59AM -34.0913 150.5520 66° East  Level FlightAware Approximate
02:00AM -34.0817 150.5775 66° East  Level FlightAware Approximate
02:01AM -34.0720 150.6030 65° Northeast  Level FlightAware Approximate
02:02AM -34.0624 150.6285 65° Northeast  Level FlightAware Approximate
02:03AM -34.0528 150.6540 65° Northeast  Level FlightAware Approximate
02:03AM -34.0402 150.6872 162° South  Level Aus ATC (Calculated)
02:05AM -34.0403 150.6872 North  Level Estimated
02:06AM -34.0403 150.6872 348° North  Level Estimated
02:07AM -34.0403 150.6872 348° North  Level Estimated
02:08AM -34.0403 150.6872 348° North  Level Estimated
02:09AM -34.0403 150.6872 348° North  Level Estimated
02:10AM -34.0403 150.6872 348° North  Level Estimated